createdAt,value
2023-05-20T00:01:52.389Z,3.80
2023-05-20T00:04:19.157Z,8.40
2023-05-20T00:06:46.130Z,3.92
2023-05-20T00:09:12.742Z,5.40
2023-05-20T00:11:39.333Z,4.00
2023-05-20T00:14:06.010Z,5.03
2023-05-20T00:16:32.778Z,6.38
2023-05-20T00:19:00.866Z,4.30
2023-05-20T00:21:27.446Z,4.75
2023-05-20T00:23:54.221Z,7.32
2023-05-20T00:26:20.885Z,4.32
2023-05-20T00:28:47.420Z,6.32
2023-05-20T00:31:14.096Z,4.53
2023-05-20T00:33:40.666Z,8.55
2023-05-20T00:36:08.686Z,4.68
2023-05-20T00:38:35.279Z,7.20
2023-05-20T00:41:01.913Z,4.47
2023-05-20T00:43:28.416Z,4.05
2023-05-20T00:45:55.769Z,7.20
2023-05-20T00:48:22.675Z,5.25
2023-05-20T00:50:50.007Z,4.70
2023-05-20T00:53:18.445Z,4.50
2023-05-20T00:55:45.175Z,7.63
2023-05-20T00:58:11.800Z,4.55
2023-05-20T01:00:39.220Z,7.20
2023-05-20T01:03:06.060Z,5.40
2023-05-20T01:05:32.954Z,6.75
2023-05-20T01:07:59.935Z,5.00
2023-05-20T01:10:28.859Z,5.85
2023-05-20T01:12:59.197Z,5.07
2023-05-20T01:15:27.508Z,5.65
2023-05-20T01:17:58.534Z,4.88
2023-05-20T01:20:25.621Z,6.45
2023-05-20T01:22:55.625Z,6.55
2023-05-20T01:25:23.077Z,6.57
2023-05-20T01:27:51.524Z,5.10
2023-05-20T01:30:18.745Z,3.75
2023-05-20T01:32:48.791Z,8.60
2023-05-20T01:35:16.981Z,5.72
2023-05-20T01:37:44.563Z,7.43
2023-05-20T01:40:15.392Z,7.45
2023-05-20T01:42:43.558Z,6.45
2023-05-20T01:45:10.962Z,9.68
2023-05-20T01:47:37.685Z,6.20
2023-05-20T01:50:04.798Z,6.28
2023-05-20T01:52:31.521Z,5.50
2023-05-20T01:54:58.260Z,7.30
2023-05-20T01:57:26.191Z,8.73
2023-05-20T01:59:52.856Z,7.30
2023-05-20T02:02:19.480Z,5.90
2023-05-20T02:04:47.407Z,5.88
2023-05-20T02:07:13.983Z,5.97
2023-05-20T02:09:40.865Z,8.02
2023-05-20T02:12:08.149Z,5.88
2023-05-20T02:14:36.089Z,7.82
2023-05-20T02:17:03.390Z,9.45
2023-05-20T02:19:30.149Z,5.68
2023-05-20T02:21:57.104Z,7.50
2023-05-20T02:24:23.708Z,4.00
2023-05-20T02:26:50.301Z,5.22
2023-05-20T02:29:17.064Z,8.20
2023-05-20T02:31:45.003Z,5.68
2023-05-20T02:34:11.607Z,8.68
2023-05-20T02:36:38.230Z,5.70
2023-05-20T02:39:04.907Z,6.82
2023-05-20T02:41:31.534Z,6.95
2023-05-20T02:43:58.140Z,5.93
2023-05-20T02:46:24.753Z,11.60
2023-05-20T02:48:52.756Z,5.65
2023-05-20T02:51:19.343Z,8.63
2023-05-20T02:53:46.395Z,7.93
2023-05-20T02:56:12.940Z,6.03
2023-05-20T02:58:39.574Z,5.43
2023-05-20T03:01:06.221Z,10.55
2023-05-20T03:03:33.521Z,6.65
2023-05-20T03:06:01.465Z,4.45
2023-05-20T03:08:28.055Z,6.72
2023-05-20T03:10:54.610Z,6.65
2023-05-20T03:13:21.211Z,6.32
2023-05-20T03:15:47.835Z,6.18
2023-05-20T03:18:14.465Z,8.20
2023-05-20T03:20:41.015Z,8.30
2023-05-20T03:23:09.307Z,9.85
2023-05-20T03:25:36.661Z,6.00
2023-05-20T03:28:03.377Z,8.45
2023-05-20T03:30:30.063Z,10.38
2023-05-20T03:32:56.806Z,7.90
2023-05-20T03:35:23.510Z,10.15
2023-05-20T03:37:50.066Z,9.20
2023-05-20T03:40:18.013Z,8.60
2023-05-20T03:42:44.589Z,7.28
2023-05-20T03:45:11.654Z,6.22
2023-05-20T03:47:38.276Z,6.85
2023-05-20T03:50:05.835Z,7.70
2023-05-20T03:52:32.580Z,5.25
2023-05-20T03:54:59.353Z,4.50
2023-05-20T03:57:27.317Z,7.90
2023-05-20T03:59:54.280Z,7.75
2023-05-20T04:02:21.059Z,4.65
2023-05-20T04:04:47.835Z,7.25
2023-05-20T04:07:14.455Z,6.97
2023-05-20T04:09:41.087Z,7.97
2023-05-20T04:12:07.958Z,8.02
2023-05-20T04:14:35.938Z,8.27
2023-05-20T04:17:03.637Z,5.15
2023-05-20T04:19:30.525Z,6.10
2023-05-20T04:21:57.193Z,6.43
2023-05-20T04:24:23.821Z,5.85
2023-05-20T04:26:50.590Z,6.97
2023-05-20T04:29:17.167Z,10.63
2023-05-20T04:31:45.322Z,9.70
2023-05-20T04:34:11.975Z,4.97
2023-05-20T04:36:38.673Z,6.93
2023-05-20T04:39:05.418Z,6.95
2023-05-20T04:41:32.079Z,6.43
2023-05-20T04:43:58.985Z,7.13
2023-05-20T04:46:25.666Z,6.47
2023-05-20T04:48:53.627Z,9.85
2023-05-20T04:51:20.272Z,7.63
2023-05-20T04:53:46.844Z,8.45
2023-05-20T04:56:13.472Z,8.73
2023-05-20T04:58:40.067Z,9.57
2023-05-20T05:01:06.701Z,7.75
2023-05-20T05:03:35.142Z,6.93
2023-05-20T05:06:04.676Z,10.20
2023-05-20T05:08:31.307Z,9.18
2023-05-20T05:10:58.080Z,10.15
2023-05-20T05:13:24.652Z,10.40
2023-05-20T05:15:58.688Z,8.93
2023-05-20T05:18:25.542Z,8.57
2023-05-20T05:20:59.231Z,6.35
2023-05-20T05:23:27.207Z,9.13
2023-05-20T05:25:53.774Z,13.38
2023-05-20T05:28:20.489Z,9.98
2023-05-20T05:30:47.180Z,6.85
2023-05-20T05:33:14.641Z,8.27
2023-05-20T05:35:41.701Z,6.68
2023-05-20T05:38:08.496Z,7.03
2023-05-20T05:40:36.561Z,12.65
2023-05-20T05:43:03.134Z,9.52
2023-05-20T05:45:29.784Z,7.97
2023-05-20T05:47:56.405Z,10.93
2023-05-20T05:50:23.079Z,6.43
2023-05-20T05:52:49.675Z,9.65
2023-05-20T05:55:16.825Z,9.38
2023-05-20T05:57:45.144Z,10.43
2023-05-20T06:00:12.846Z,11.15
2023-05-20T06:02:39.525Z,8.95
2023-05-20T06:05:07.432Z,11.07
2023-05-20T06:07:34.029Z,7.32
2023-05-20T06:10:00.668Z,11.30
2023-05-20T06:12:27.356Z,9.35
2023-05-20T06:14:55.480Z,11.98
2023-05-20T06:17:22.133Z,8.15
2023-05-20T06:19:48.778Z,9.75
2023-05-20T06:22:15.433Z,8.93
2023-05-20T06:24:42.034Z,9.85
2023-05-20T06:27:08.613Z,9.90
2023-05-20T06:29:35.170Z,12.98
2023-05-20T06:32:03.143Z,13.18
2023-05-20T06:34:29.686Z,8.35
2023-05-20T06:36:56.244Z,14.00
2023-05-20T06:39:22.836Z,8.30
2023-05-20T06:41:49.450Z,9.95
2023-05-20T06:44:16.005Z,9.93
2023-05-20T06:46:42.728Z,10.15
2023-05-20T06:49:10.703Z,15.32
2023-05-20T06:51:37.286Z,11.13
2023-05-20T06:54:03.861Z,8.90
2023-05-20T06:56:30.430Z,9.98
2023-05-20T06:58:57.003Z,11.85
2023-05-20T07:01:23.596Z,11.48
2023-05-20T07:03:50.339Z,13.13
2023-05-20T07:06:18.297Z,11.13
2023-05-20T07:08:44.993Z,9.85
2023-05-20T07:11:11.579Z,13.10
2023-05-20T07:13:38.386Z,12.65
2023-05-20T07:16:05.586Z,13.10
2023-05-20T07:18:32.326Z,9.38
2023-05-20T07:20:58.961Z,10.48
2023-05-20T07:23:26.959Z,16.08
2023-05-20T07:25:53.674Z,20.23
2023-05-20T07:28:20.863Z,9.93
2023-05-20T07:30:47.430Z,7.75
2023-05-20T07:33:14.060Z,10.35
2023-05-20T07:35:40.842Z,14.05
2023-05-20T07:38:07.406Z,16.70
2023-05-20T07:40:35.503Z,15.57
2023-05-20T07:43:02.298Z,12.65
2023-05-20T07:45:28.913Z,12.50
2023-05-20T07:47:55.668Z,12.02
2023-05-20T07:50:22.405Z,10.77
2023-05-20T07:55:21.665Z,10.37
2023-05-20T07:57:49.612Z,13.27
2023-05-20T08:00:16.439Z,10.38
2023-05-20T08:02:43.210Z,9.88
2023-05-20T08:05:10.145Z,9.40
2023-05-20T08:07:36.728Z,11.90
2023-05-20T08:10:03.964Z,6.40
2023-05-20T08:12:30.577Z,8.80
2023-05-20T08:14:58.580Z,8.50
2023-05-20T08:17:25.243Z,11.85
2023-05-20T08:19:51.902Z,7.10
2023-05-20T08:22:19.722Z,8.13
2023-05-20T08:24:46.334Z,6.88
2023-05-20T08:27:12.965Z,11.18
2023-05-20T08:29:39.652Z,12.63
2023-05-20T08:32:08.107Z,7.43
2023-05-20T08:34:34.654Z,14.05
2023-05-20T08:37:01.375Z,7.32
2023-05-20T08:39:27.973Z,8.85
2023-05-20T08:41:54.606Z,10.48
2023-05-20T08:44:22.615Z,6.07
2023-05-20T08:46:50.365Z,10.63
2023-05-20T08:49:19.348Z,9.65
2023-05-20T08:51:46.182Z,10.20
2023-05-20T08:54:14.490Z,8.65
2023-05-20T08:56:41.718Z,7.18
2023-05-20T08:59:09.244Z,6.75
2023-05-20T09:01:41.284Z,8.77
2023-05-20T09:04:07.939Z,7.60
2023-05-20T09:06:43.975Z,11.77
2023-05-20T09:09:11.165Z,10.98
2023-05-20T09:11:38.079Z,6.90
2023-05-20T09:14:04.750Z,7.18
2023-05-20T09:16:31.548Z,8.35
2023-05-20T09:18:58.358Z,8.48
2023-05-20T09:21:26.752Z,8.32
2023-05-20T09:23:54.866Z,7.78
2023-05-20T09:26:21.448Z,8.80
2023-05-20T09:28:48.003Z,7.97
2023-05-20T09:31:14.952Z,6.25
2023-05-20T09:33:41.563Z,9.80
2023-05-20T09:36:09.187Z,6.60
2023-05-20T09:38:37.671Z,6.40
2023-05-20T09:41:07.939Z,7.00
2023-05-20T09:43:34.946Z,9.05
2023-05-20T09:46:02.138Z,7.32
2023-05-20T09:48:32.166Z,8.10
2023-05-20T09:51:01.729Z,6.78
2023-05-20T09:53:28.801Z,9.35
2023-05-20T09:55:55.869Z,7.53
2023-05-20T09:58:24.051Z,7.90
2023-05-20T10:00:50.745Z,6.55
2023-05-20T10:03:18.139Z,8.75
2023-05-20T10:05:51.979Z,11.75
2023-05-20T10:08:48.049Z,9.48
2023-05-20T10:11:23.388Z,8.70
2023-05-20T10:14:26.205Z,8.45
2023-05-20T10:17:07.514Z,8.15
2023-05-20T10:19:35.032Z,8.75
2023-05-20T10:22:02.973Z,7.35
2023-05-20T10:24:31.147Z,11.40
2023-05-20T10:26:58.690Z,6.95
2023-05-20T10:29:26.648Z,11.15
2023-05-20T10:31:54.107Z,8.65
2023-05-20T10:34:21.895Z,9.60
2023-05-20T10:36:58.281Z,10.18
2023-05-20T10:39:26.645Z,10.45
2023-05-20T10:41:53.305Z,11.38
2023-05-20T10:44:19.908Z,8.10
2023-05-20T10:49:34.139Z,10.98
2023-05-20T10:52:00.795Z,9.82
2023-05-20T10:54:27.768Z,13.32
2023-05-20T10:56:55.064Z,10.98
2023-05-20T10:59:22.369Z,14.05
2023-05-20T11:01:50.850Z,9.65
2023-05-20T11:04:17.962Z,8.75
2023-05-20T11:06:50.585Z,10.07
2023-05-20T11:09:17.371Z,11.63
2023-05-20T11:11:44.051Z,11.32
2023-05-20T11:14:10.830Z,9.80
2023-05-20T11:16:37.483Z,10.45
2023-05-20T11:19:07.264Z,11.13
2023-05-20T11:21:33.948Z,10.18
2023-05-20T11:24:00.677Z,8.65
2023-05-20T11:26:29.579Z,11.65
2023-05-20T11:28:56.553Z,9.02
2023-05-20T11:31:23.197Z,12.32
2023-05-20T11:33:50.687Z,11.50
2023-05-20T11:36:27.515Z,13.73
2023-05-20T11:38:56.924Z,9.80
2023-05-20T11:41:24.644Z,15.90
2023-05-20T11:43:56.858Z,11.70
2023-05-20T11:46:23.602Z,12.80
2023-05-20T11:48:53.893Z,10.30
2023-05-20T11:51:24.425Z,11.02
2023-05-20T11:53:51.029Z,13.65
2023-05-20T11:56:17.766Z,8.25
2023-05-20T11:58:44.564Z,12.95
2023-05-20T12:01:21.768Z,10.75
2023-05-20T12:03:49.484Z,10.43
2023-05-20T12:06:17.266Z,11.93
2023-05-20T12:08:45.384Z,11.95
2023-05-20T12:11:11.966Z,9.15
2023-05-20T12:13:39.631Z,12.20
2023-05-20T12:16:06.665Z,10.32
2023-05-20T12:18:33.751Z,11.20
2023-05-20T12:21:00.654Z,14.43
2023-05-20T12:23:27.367Z,12.80
2023-05-20T12:25:55.309Z,11.65
2023-05-20T12:28:21.877Z,8.85
2023-05-20T12:30:48.474Z,11.98
2023-05-20T12:33:15.079Z,14.13
2023-05-20T12:35:42.504Z,10.85
2023-05-20T12:38:09.631Z,13.18
2023-05-20T12:40:37.315Z,18.55
2023-05-20T12:43:06.089Z,9.43
2023-05-20T12:45:32.952Z,13.38
2023-05-20T12:47:59.854Z,13.30
2023-05-20T12:50:27.219Z,12.30
2023-05-20T12:52:53.878Z,10.73
2023-05-20T12:55:20.482Z,10.85
2023-05-20T12:57:47.394Z,10.98
2023-05-20T13:00:16.480Z,11.55
2023-05-20T13:02:43.525Z,12.30
2023-05-20T13:05:10.810Z,11.60
2023-05-20T13:07:37.652Z,12.38
2023-05-20T13:10:05.344Z,9.85
2023-05-20T13:12:31.996Z,10.25
2023-05-20T13:14:58.761Z,11.60
2023-05-20T13:17:27.274Z,10.52
2023-05-20T13:19:53.987Z,13.15
2023-05-20T13:22:20.598Z,13.40
2023-05-20T13:24:47.271Z,11.65
2023-05-20T13:27:13.978Z,12.75
2023-05-20T13:29:40.622Z,10.10
2023-05-20T13:32:07.574Z,13.68
2023-05-20T13:34:35.584Z,14.63
2023-05-20T13:37:02.338Z,9.85
2023-05-20T13:39:28.899Z,14.07
2023-05-20T13:41:55.562Z,12.63
2023-05-20T13:44:22.210Z,10.68
2023-05-20T13:46:49.077Z,11.65
2023-05-20T13:49:15.730Z,13.43
2023-05-20T13:51:43.711Z,10.38
2023-05-20T13:54:10.290Z,11.60
2023-05-20T13:56:37.087Z,11.20
2023-05-20T13:59:04.017Z,10.25
2023-05-20T14:01:30.912Z,9.05
2023-05-20T14:03:57.625Z,14.70
2023-05-20T14:06:24.392Z,10.27
2023-05-20T14:08:54.330Z,9.50
2023-05-20T14:11:20.951Z,10.63
2023-05-20T14:13:47.563Z,10.85
2023-05-20T14:16:14.378Z,10.32
2023-05-20T14:18:40.990Z,11.88
2023-05-20T14:21:07.596Z,8.27
2023-05-20T14:23:34.168Z,9.70
2023-05-20T14:26:02.181Z,10.90
2023-05-20T14:28:28.769Z,10.73
2023-05-20T14:30:55.421Z,11.43
2023-05-20T14:33:22.045Z,9.38
2023-05-20T14:35:48.700Z,11.77
2023-05-20T14:38:15.285Z,9.95
2023-05-20T14:40:41.934Z,9.18
2023-05-20T14:43:09.847Z,10.88
2023-05-20T14:45:36.462Z,9.27
2023-05-20T14:48:03.168Z,17.77
2023-05-20T14:50:29.820Z,14.00
2023-05-20T14:52:56.361Z,12.45
2023-05-20T14:55:23.039Z,9.57
2023-05-20T14:57:49.759Z,7.22
2023-05-20T15:00:17.882Z,9.05
2023-05-20T15:02:44.527Z,6.68
2023-05-20T15:05:11.237Z,9.27
2023-05-20T15:07:38.129Z,11.55
2023-05-20T15:10:09.788Z,8.27
2023-05-20T15:12:36.361Z,8.15
2023-05-20T15:15:03.154Z,7.78
2023-05-20T15:17:31.158Z,7.85
2023-05-20T15:19:57.925Z,12.45
2023-05-20T15:22:24.514Z,10.07
2023-05-20T15:24:51.079Z,8.00
2023-05-20T15:27:17.675Z,10.90
2023-05-20T15:29:44.453Z,10.00
2023-05-20T15:32:11.049Z,8.95
2023-05-20T15:34:39.029Z,6.82
2023-05-20T15:37:05.729Z,9.00
2023-05-20T15:39:32.443Z,8.27
2023-05-20T15:41:59.019Z,7.07
2023-05-20T15:44:25.691Z,9.82
2023-05-20T15:46:52.350Z,7.57
2023-05-20T15:49:18.979Z,12.63
2023-05-20T15:51:55.765Z,6.78
2023-05-20T15:54:28.768Z,8.25
2023-05-20T15:56:55.394Z,11.77
2023-05-20T15:59:21.956Z,12.52
2023-05-20T16:01:48.605Z,7.15
2023-05-20T16:04:15.357Z,8.38
2023-05-20T16:06:42.184Z,5.95
2023-05-20T16:09:10.109Z,9.35
2023-05-20T16:11:36.707Z,7.20
2023-05-20T16:14:03.301Z,8.27
2023-05-20T16:16:29.992Z,7.50
2023-05-20T16:18:58.245Z,7.63
2023-05-20T16:21:25.080Z,6.68
2023-05-20T16:23:51.718Z,6.15
2023-05-20T16:26:19.782Z,10.48
2023-05-20T16:28:46.502Z,10.40
2023-05-20T16:31:13.050Z,9.93
2023-05-20T16:33:39.625Z,10.27
2023-05-20T16:36:06.583Z,9.43
2023-05-20T16:38:33.193Z,6.25
2023-05-20T16:40:59.881Z,7.65
2023-05-20T16:43:28.107Z,6.82
2023-05-20T16:45:54.789Z,6.93
2023-05-20T16:48:21.597Z,6.75
2023-05-20T16:50:48.264Z,5.72
2023-05-20T16:53:16.557Z,6.70
2023-05-20T16:55:43.368Z,9.43
2023-05-20T16:58:09.977Z,9.32
2023-05-20T17:00:37.948Z,9.25
2023-05-20T17:03:04.566Z,9.52
2023-05-20T17:05:31.206Z,9.07
2023-05-20T17:07:57.843Z,8.43
2023-05-20T17:10:24.428Z,8.95
2023-05-20T17:12:51.198Z,6.93
2023-05-20T17:15:17.824Z,9.35
2023-05-20T17:17:46.032Z,6.50
2023-05-20T17:20:13.405Z,10.70
2023-05-20T17:22:40.005Z,8.65
2023-05-20T17:25:07.197Z,5.75
2023-05-20T17:27:33.792Z,8.60
2023-05-20T17:30:00.413Z,7.28
2023-05-20T17:32:27.098Z,9.23
2023-05-20T17:34:55.033Z,8.68
2023-05-20T17:37:21.641Z,8.32
2023-05-20T17:39:48.291Z,10.82
2023-05-20T17:42:15.003Z,10.45
2023-05-20T17:44:41.690Z,12.30
2023-05-20T17:47:08.288Z,6.63
2023-05-20T17:49:34.993Z,8.77
2023-05-20T17:52:02.987Z,11.57
2023-05-20T17:54:29.563Z,9.63
2023-05-20T17:56:56.131Z,6.82
2023-05-20T17:59:22.809Z,6.13
2023-05-20T18:01:49.590Z,9.38
2023-05-20T18:04:16.298Z,8.05
2023-05-20T18:06:43.268Z,6.65
2023-05-20T18:09:11.215Z,9.77
2023-05-20T18:11:37.943Z,6.35
2023-05-20T18:14:04.566Z,7.57
2023-05-20T18:16:31.366Z,6.93
2023-05-20T18:18:58.282Z,6.90
2023-05-20T18:21:25.331Z,7.80
2023-05-20T18:23:52.007Z,9.40
2023-05-20T18:26:20.204Z,8.20
2023-05-20T18:28:46.897Z,8.95
2023-05-20T18:31:13.541Z,9.63
2023-05-20T18:33:40.173Z,10.38
2023-05-20T18:36:07.706Z,9.50
2023-05-20T18:38:34.390Z,6.57
2023-05-20T18:41:01.023Z,7.93
2023-05-20T18:43:29.054Z,10.32
2023-05-20T18:45:55.665Z,6.50
2023-05-20T18:48:26.642Z,8.27
2023-05-20T18:50:54.041Z,7.53
2023-05-20T18:53:20.590Z,11.63
2023-05-20T18:55:47.783Z,14.18
2023-05-20T18:58:14.750Z,9.63
2023-05-20T19:00:42.786Z,9.07
2023-05-20T19:03:09.464Z,8.05
2023-05-20T19:05:36.304Z,9.52
2023-05-20T19:08:03.560Z,9.05
2023-05-20T19:10:30.308Z,8.18
2023-05-20T19:12:56.924Z,10.20
2023-05-20T19:15:23.470Z,8.30
2023-05-20T19:17:51.473Z,11.20
2023-05-20T19:20:18.072Z,8.52
2023-05-20T19:22:44.670Z,8.80
2023-05-20T19:25:11.254Z,10.98
2023-05-20T19:27:37.853Z,14.43
2023-05-20T19:30:05.185Z,10.32
2023-05-20T19:32:31.902Z,11.52
2023-05-20T19:34:59.986Z,8.35
2023-05-20T19:37:26.613Z,9.13
2023-05-20T19:39:53.456Z,8.50
2023-05-20T19:42:20.093Z,10.40
2023-05-20T19:44:46.767Z,8.73
2023-05-20T19:47:13.562Z,14.55
2023-05-20T19:49:40.284Z,9.65
2023-05-20T19:52:08.262Z,9.98
2023-05-20T19:54:34.809Z,8.35
2023-05-20T19:57:01.402Z,11.20
2023-05-20T19:59:28.075Z,10.55
2023-05-20T20:01:54.737Z,9.90
2023-05-20T20:04:21.321Z,8.95
2023-05-20T20:06:47.894Z,12.05
2023-05-20T20:09:16.014Z,13.85
2023-05-20T20:11:42.648Z,8.73
2023-05-20T20:14:09.341Z,13.18
2023-05-20T20:16:36.052Z,10.38
2023-05-20T20:19:02.704Z,9.90
2023-05-20T20:21:29.390Z,12.77
2023-05-20T20:23:55.967Z,13.57
2023-05-20T20:26:23.878Z,11.90
2023-05-20T20:28:50.412Z,9.73
2023-05-20T20:31:17.151Z,9.18
2023-05-20T20:33:43.942Z,9.60
2023-05-20T20:36:10.597Z,11.52
2023-05-20T20:38:37.153Z,8.60
2023-05-20T20:41:03.735Z,8.48
2023-05-20T20:43:31.761Z,11.18
2023-05-20T20:45:58.319Z,14.68
2023-05-20T20:48:24.915Z,11.25
2023-05-20T20:50:51.515Z,12.55
2023-05-20T20:53:18.152Z,12.32
2023-05-20T20:55:45.279Z,11.75
2023-05-20T20:58:12.116Z,11.25
2023-05-20T21:00:40.257Z,12.95
2023-05-20T21:03:07.066Z,11.60
2023-05-20T21:05:34.307Z,12.10
2023-05-20T21:08:01.315Z,12.77
2023-05-20T21:10:27.910Z,14.18
2023-05-20T21:12:54.931Z,16.95
2023-05-20T21:15:21.832Z,13.48
2023-05-20T21:17:49.856Z,13.77
2023-05-20T21:20:17.681Z,9.88
2023-05-20T21:22:46.086Z,11.52
2023-05-20T21:25:12.742Z,13.18
2023-05-20T21:27:39.632Z,13.25
2023-05-20T21:30:07.681Z,13.88
2023-05-20T21:32:34.247Z,10.35
2023-05-20T21:35:02.353Z,14.32
2023-05-20T21:37:28.978Z,15.40
2023-05-20T21:39:55.627Z,11.07
2023-05-20T21:42:22.566Z,17.90
2023-05-20T21:44:49.227Z,14.07
2023-05-20T21:47:16.114Z,10.40
2023-05-20T21:49:42.904Z,12.82
2023-05-20T21:52:10.839Z,13.88
2023-05-20T21:54:37.427Z,18.45
2023-05-20T21:57:04.111Z,14.90
2023-05-20T21:59:30.674Z,16.05
2023-05-20T22:01:57.273Z,16.42
2023-05-20T22:04:23.956Z,13.07
2023-05-20T22:06:50.840Z,13.07
2023-05-20T22:09:18.861Z,13.55
2023-05-20T22:11:45.401Z,13.77
2023-05-20T22:14:11.978Z,14.73
2023-05-20T22:16:38.591Z,12.40
2023-05-20T22:19:05.228Z,15.82
2023-05-20T22:21:34.229Z,12.15
2023-05-20T22:24:06.525Z,14.45
2023-05-20T22:26:34.609Z,14.27
2023-05-20T22:29:01.324Z,12.60
2023-05-20T22:31:28.045Z,16.13
2023-05-20T22:33:54.721Z,13.52
2023-05-20T22:36:21.422Z,12.98
2023-05-20T22:38:48.064Z,15.98
2023-05-20T22:41:14.724Z,17.70
2023-05-20T22:43:42.704Z,14.77
2023-05-20T22:46:09.392Z,15.90
2023-05-20T22:48:35.980Z,14.68
2023-05-20T22:51:02.567Z,13.50
2023-05-20T22:53:29.327Z,14.48
2023-05-20T22:55:55.920Z,17.65
2023-05-20T22:58:22.555Z,13.40
2023-05-20T23:00:50.620Z,18.40
2023-05-20T23:03:17.203Z,16.88
2023-05-20T23:05:43.786Z,13.98
2023-05-20T23:08:10.374Z,16.65
2023-05-20T23:10:37.092Z,13.68
2023-05-20T23:13:03.747Z,16.08
2023-05-20T23:15:30.306Z,14.18
2023-05-20T23:17:58.318Z,16.27
2023-05-20T23:20:25.020Z,16.23
2023-05-20T23:22:51.548Z,15.10
2023-05-20T23:25:18.199Z,13.48
2023-05-20T23:27:45.049Z,15.80
2023-05-20T23:30:11.891Z,14.00
2023-05-20T23:32:38.726Z,11.95
2023-05-20T23:35:07.684Z,15.18
2023-05-20T23:37:34.314Z,16.52
2023-05-20T23:40:00.901Z,16.58
2023-05-20T23:42:27.448Z,16.10
2023-05-20T23:44:54.003Z,15.13
2023-05-20T23:47:20.634Z,17.85
2023-05-20T23:49:49.217Z,18.35
2023-05-20T23:52:17.534Z,17.20
2023-05-20T23:54:44.135Z,17.58
2023-05-20T23:57:10.720Z,17.73
2023-05-20T23:59:37.348Z,16.45
